Time;durP1;ratioP1;P1;durP2;ratioP2;P2;SDS_P1;SDS_P2;PMS_P1;PMS_P2;Temp;Humidity;BMP_temperature;BMP_pressure;BME280_temperature;BME280_humidity;BME280_pressure;Samples;Min_cycle;Max_cycle;Signal;HPM_P1;HPM_P2
2024/03/01 00:00:03;;;;;;;63.38;30.40;;;7.20;99.90;;;5.88;100.00;100570.09;4949751;28;20033;-81
2024/03/01 00:02:29;;;;;;;60.08;30.45;;;7.20;99.90;;;5.89;100.00;100563.13;4947152;28;20053;-81
2024/03/01 00:04:54;;;;;;;56.92;30.35;;;7.20;99.90;;;5.90;100.00;100555.22;4951709;23;20106;-80
2024/03/01 00:07:20;;;;;;;60.00;30.88;;;7.20;99.90;;;5.93;100.00;100547.28;4975070;28;20109;-81
2024/03/01 00:09:51;;;;;;;63.15;32.22;;;7.30;99.90;;;5.98;100.00;100548.94;4940304;28;20046;-81
2024/03/01 00:12:17;;;;;;;64.32;31.90;;;7.30;99.90;;;6.02;100.00;100537.50;4935897;28;20654;-81
2024/03/01 00:14:42;;;;;;;64.60;32.72;;;7.30;99.90;;;6.04;100.00;100538.31;4937870;28;20037;-81
2024/03/01 00:17:08;;;;;;;68.30;33.65;;;7.40;99.90;;;6.08;100.00;100532.94;4909229;28;20103;-81
2024/03/01 00:19:34;;;;;;;64.10;33.33;;;7.40;99.90;;;6.12;100.00;100520.63;4913084;28;20174;-80
2024/03/01 00:22:00;;;;;;;67.35;32.53;;;7.40;99.90;;;6.11;100.00;100530.25;4944300;28;20072;-81
2024/03/01 00:24:32;;;;;;;78.03;40.33;;;7.40;99.90;;;6.13;100.00;100525.81;4914609;28;20091;-81
2024/03/01 00:26:57;;;;;;;81.43;39.22;;;7.30;99.90;;;6.19;100.00;100537.81;4930490;28;20049;-81
2024/03/01 00:29:24;;;;;;;69.45;33.95;;;;;;;6.19;100.00;100532.59;4917436;28;20038;-80
2024/03/01 00:31:49;;;;;;;67.60;34.17;;;7.50;99.90;;;6.21;100.00;100528.19;4918129;28;20048;-81
2024/03/01 00:34:16;;;;;;;67.47;32.75;;;7.50;99.90;;;6.23;100.00;100525.53;4912722;28;20042;-81
2024/03/01 00:36:41;;;;;;;72.75;35.17;;;7.60;99.90;;;6.26;99.78;100535.88;4949062;28;20047;-81
2024/03/01 00:39:12;;;;;;;72.75;33.47;;;7.60;99.90;;;6.26;100.00;100531.50;4937963;28;20557;-81
2024/03/01 00:41:40;;;;;;;74.40;34.35;;;7.60;99.90;;;6.27;99.75;100534.97;4936492;28;22240;-81
2024/03/01 00:44:06;;;;;;;76.47;36.22;;;7.50;99.90;;;6.26;100.00;100538.47;4937845;28;20041;-81
2024/03/01 00:46:32;;;;;;;72.70;33.75;;;7.50;99.90;;;6.21;100.00;100525.56;4921896;28;20130;-81
2024/03/01 00:49:03;;;;;;;71.85;32.80;;;7.50;99.90;;;6.21;100.00;100517.72;4925976;28;20106;-81
2024/03/01 00:51:29;;;;;;;68.55;32.65;;;7.50;99.90;;;6.18;100.00;100517.81;4920014;28;20072;-81
2024/03/01 00:53:54;;;;;;;80.57;34.72;;;7.50;99.90;;;6.22;100.00;100516.84;4924581;28;20489;-81
2024/03/01 00:56:20;;;;;;;76.18;33.90;;;7.50;99.90;;;6.23;100.00;100526.38;4936687;28;20046;-81
2024/03/01 00:58:46;;;;;;;75.65;34.10;;;7.50;99.90;;;6.23;100.00;100515.91;4938205;28;20106;-81
2024/03/01 01:01:12;;;;;;;77.38;35.75;;;7.60;99.90;;;6.24;100.00;100520.25;4872748;28;20462;-81
2024/03/01 01:03:43;;;;;;;88.30;35.15;;;7.60;99.90;;;6.26;100.00;100517.56;4960576;28;20097;-81
2024/03/01 01:06:09;;;;;;;91.05;36.70;;;7.60;99.90;;;6.26;100.00;100510.56;4951018;28;20060;-82
2024/03/01 01:08:35;;;;;;;93.07;38.45;;;7.60;99.90;;;6.28;100.00;100508.75;4923087;28;20051;-82
2024/03/01 01:11:01;;;;;;;88.32;35.17;;;7.60;99.90;;;6.26;100.00;100507.94;4928821;28;20034;-81
2024/03/01 01:13:27;;;;;;;89.82;35.95;;;7.60;99.90;;;6.30;100.00;100506.09;4912660;28;20040;-80
2024/03/01 01:15:53;;;;;;;90.50;38.13;;;7.60;99.90;;;6.31;100.00;100498.22;4944888;28;20058;-81
2024/03/01 01:18:26;;;;;;;96.00;37.15;;;7.70;99.90;;;6.34;100.00;100498.09;4910544;28;20045;-81
2024/03/01 01:20:52;;;;;;;87.53;36.53;;;7.60;99.90;;;6.31;100.00;100498.22;4911051;28;20055;-81
2024/03/01 01:23:18;;;;;;;99.38;38.38;;;7.60;99.90;;;6.33;100.00;100490.34;4924841;28;20183;-81
2024/03/01 01:25:44;;;;;;;99.18;38.58;;;7.70;99.90;;;6.31;100.00;100490.38;4936003;28;20045;-81
2024/03/01 01:28:15;;;;;;;95.90;36.70;;;7.60;99.90;;;6.32;100.00;100486.84;4938320;28;20057;-81
2024/03/01 01:30:41;;;;;;;91.03;35.35;;;7.60;99.90;;;6.33;100.00;100487.72;4937890;28;20066;-81
2024/03/01 01:33:07;;;;;;;101.05;38.15;;;7.60;99.90;;;6.33;100.00;100485.09;4947227;28;20500;-81
2024/03/01 01:35:33;;;;;;;101.38;37.90;;;7.60;99.90;;;6.32;100.00;100475.53;4924307;28;20034;-81
2024/03/01 01:37:59;;;;;;;104.47;38.85;;;7.60;99.90;;;6.33;100.00;100469.41;4928630;28;20066;-81
2024/03/01 01:40:30;;;;;;;103.90;37.40;;;7.70;99.90;;;6.35;100.00;100470.22;4937340;28;20037;-81
2024/03/01 01:42:57;;;;;;;113.38;39.13;;;7.70;99.90;;;6.36;100.00;100459.69;4925158;28;20046;-81
2024/03/01 01:45:23;;;;;;;105.80;39.00;;;7.70;99.90;;;6.37;100.00;100455.31;4917153;28;20054;-81
2024/03/01 01:47:49;;;;;;;105.70;38.80;;;7.70;99.90;;;6.38;100.00;100451.78;4926777;28;20037;-81
2024/03/01 01:50:17;;;;;;;101.55;38.88;;;7.70;99.90;;;6.37;100.00;100444.84;4889175;28;20034;-81
2024/03/01 01:52:48;;;;;;;109.68;39.47;;;7.70;99.90;;;6.38;100.00;100448.34;4926652;28;20082;-80
2024/03/01 01:55:15;;;;;;;116.55;37.65;;;7.70;99.90;;;6.38;100.00;100445.72;4943838;28;20126;-81
2024/03/01 01:57:45;;;;;;;109.03;41.22;;;7.70;99.90;;;6.40;100.00;100454.38;4942593;28;20046;-80
2024/03/01 02:00:17;;;;;;;107.22;38.60;;;7.70;99.90;;;6.39;100.00;100442.19;4904719;28;20029;-81
2024/03/01 02:02:43;;;;;;;100.90;37.88;;;7.70;99.90;;;6.35;100.00;100447.53;4913633;28;20629;-81
2024/03/01 02:05:09;;;;;;;115.05;40.67;;;7.70;99.90;;;6.36;100.00;100438.75;4918367;28;20142;-80
2024/03/01 02:07:36;;;;;;;115.90;39.65;;;7.70;99.90;;;6.35;100.00;100437.06;4983156;28;20023;-80
2024/03/01 02:10:32;;;;;;;113.13;41.83;;;7.70;99.90;;;6.35;100.00;100429.22;4939125;28;20469;-82
2024/03/01 02:13:04;;;;;;;117.65;41.65;;;7.70;99.90;;;6.40;100.00;100423.00;4932933;28;20098;-81
2024/03/01 02:15:30;;;;;;;107.20;40.50;;;7.70;99.90;;;6.41;100.00;100416.84;4903386;28;20102;-81
2024/03/01 02:17:57;;;;;;;128.07;44.97;;;7.70;99.90;;;6.42;100.00;100401.09;4905400;28;20050;-81
2024/03/01 02:20:35;;;;;;;121.28;43.72;;;7.70;99.90;;;6.45;100.00;100400.13;4933180;28;20030;-80
2024/03/01 02:23:04;;;;;;;119.70;42.53;;;7.80;99.90;;;6.46;100.00;100401.84;4964835;28;20038;-80
2024/03/01 02:25:29;;;;;;;137.70;48.47;;;7.80;99.90;;;6.47;100.00;100399.16;4930441;28;21083;-81
2024/03/01 02:28:03;;;;;;;111.72;40.72;;;7.80;99.90;;;6.48;100.00;100394.78;4982109;28;20045;-80
2024/03/01 02:30:29;;;;;;;124.60;42.85;;;7.80;99.90;;;6.48;100.00;100400.00;4924536;28;20034;-81
2024/03/01 02:32:55;;;;;;;117.43;43.78;;;7.80;99.90;;;6.51;100.00;100395.53;4939198;28;20484;-80
2024/03/01 02:35:20;;;;;;;140.25;53.85;;;7.80;99.90;;;6.51;100.00;100392.94;4931946;28;20026;-81
2024/03/01 02:37:55;;;;;;;177.73;68.85;;;7.80;99.90;;;6.52;100.00;100393.78;4918100;28;20108;-81
2024/03/01 02:40:21;;;;;;;232.65;92.22;;;7.80;99.90;;;6.53;100.00;100387.66;4913264;28;20026;-80
2024/03/01 02:42:47;;;;;;;127.68;48.55;;;7.80;99.90;;;6.53;100.00;100387.66;4936129;28;20034;-81
2024/03/01 02:45:21;;;;;;;120.82;43.83;;;7.80;99.90;;;6.54;100.00;100389.34;4937409;28;20050;-81
2024/03/01 02:47:47;;;;;;;129.88;44.75;;;7.80;99.90;;;6.53;100.00;100380.66;4913549;28;20403;-81
2024/03/01 02:50:14;;;;;;;124.10;43.40;;;7.80;99.90;;;6.54;100.00;100384.09;4936589;28;20042;-81
2024/03/01 02:52:40;;;;;;;139.20;47.72;;;7.80;99.90;;;6.54;100.00;100379.75;4924259;28;20501;-80
2024/03/01 02:55:20;;;;;;;137.73;49.55;;;7.80;99.90;;;6.55;100.00;100370.13;4932204;28;20094;-82
2024/03/01 02:57:51;;;;;;;132.32;44.47;;;7.80;99.90;;;6.50;100.00;100374.66;4920585;28;20071;-81
2024/03/01 03:00:19;;;;;;;124.35;41.80;;;7.80;99.90;;;6.49;100.00;100375.59;4936734;28;20030;-81
2024/03/01 03:02:45;;;;;;;136.35;45.50;;;7.80;99.90;;;6.46;100.00;100378.31;4920739;28;20054;-81
2024/03/01 03:05:11;;;;;;;133.35;46.60;;;7.80;99.90;;;6.45;100.00;100363.53;4927347;28;20469;-80
2024/03/01 03:07:43;;;;;;;126.57;44.80;;;7.70;99.90;;;6.47;100.00;100362.53;4942599;28;20046;-81
2024/03/01 03:10:09;;;;;;;129.65;43.08;;;7.80;99.90;;;6.47;100.00;100362.53;4956828;28;20030;-81
2024/03/01 03:12:35;;;;;;;127.78;43.63;;;7.80;99.90;;;6.47;100.00;100364.31;4936167;28;20081;-81
2024/03/01 03:15:07;;;;;;;133.27;43.25;;;7.80;99.90;;;6.42;100.00;100364.50;4931940;28;20190;-82
2024/03/01 03:17:36;;;;;;;141.30;44.67;;;7.80;99.90;;;6.44;100.00;100356.59;4900687;28;20040;-82
2024/03/01 03:20:12;;;;;;;136.38;45.40;;;7.70;99.90;;;6.43;100.00;100355.72;4920115;28;20148;-81
2024/03/01 03:22:47;;;;;;;130.95;46.78;;;7.70;99.90;;;6.45;100.00;100355.66;4932216;28;20026;-81
2024/03/01 03:25:13;;;;;;;142.05;45.78;;;7.70;99.90;;;6.45;100.00;100353.06;4948359;28;20109;-81
2024/03/01 03:27:44;;;;;;;128.60;42.88;;;7.70;99.90;;;6.45;100.00;100353.91;4953929;28;20046;-81
2024/03/01 03:30:11;;;;;;;143.60;47.00;;;7.80;99.90;;;6.47;100.00;100352.09;4920505;28;20022;-81
2024/03/01 03:32:37;;;;;;;140.35;45.15;;;7.80;99.90;;;6.47;100.00;100351.25;4916697;28;20506;-80
2024/03/01 03:35:04;;;;;;;142.30;45.80;;;7.80;99.90;;;6.47;100.00;100352.09;4894987;28;20049;-81
2024/03/01 03:37:39;;;;;;;145.82;47.85;;;7.80;99.90;;;6.48;100.00;100353.81;4901963;28;20035;-81
2024/03/01 03:40:18;;;;;;;144.30;48.40;;;7.80;99.90;;;6.51;100.00;100351.06;4916343;28;20038;-81
2024/03/01 03:42:44;;;;;;;144.35;47.05;;;7.80;99.90;;;6.51;100.00;100353.69;4929345;28;20038;-81
2024/03/01 03:45:10;;;;;;;142.93;47.72;;;7.80;99.90;;;6.53;100.00;100351.03;4950324;28;20053;-82
2024/03/01 03:47:37;;;;;;;141.55;47.60;;;7.80;99.90;;;6.55;100.00;100359.69;4916183;28;21554;-81
2024/03/01 03:50:13;;;;;;;144.88;47.33;;;7.90;99.90;;;6.56;100.00;100359.59;4892798;28;20050;-81
2024/03/01 03:52:39;;;;;;;149.57;47.72;;;;;;;6.58;100.00;100356.94;4922719;28;20045;-81
2024/03/01 03:55:06;;;;;;;165.23;51.05;;;7.80;99.90;;;6.59;100.00;100361.28;4942650;28;20046;-80
2024/03/01 03:57:37;;;;;;;154.77;47.85;;;7.90;99.90;;;6.61;100.00;100349.00;4918026;28;20113;-81
2024/03/01 04:00:09;;;;;;;159.60;49.17;;;7.90;99.90;;;6.63;100.00;100352.41;4910954;28;20587;-81
2024/03/01 04:02:44;;;;;;;157.18;52.38;;;7.90;99.90;;;6.66;100.00;100344.44;4904782;28;20056;-81
2024/03/01 04:05:10;;;;;;;158.93;49.97;;;7.90;99.90;;;6.67;100.00;100353.13;4912344;28;20035;-81
2024/03/01 04:07:37;;;;;;;158.98;50.67;;;8.00;99.90;;;6.67;100.00;100348.75;4924196;28;20034;-81
2024/03/01 04:10:12;;;;;;;177.65;52.58;;;8.00;99.90;;;6.70;100.00;100343.41;4920052;28;20035;-81
2024/03/01 04:12:38;;;;;;;171.95;52.58;;;8.00;99.90;;;6.69;100.00;100336.47;4941590;28;20123;-81
2024/03/01 04:15:05;;;;;;;168.18;51.58;;;8.00;99.90;;;6.70;100.00;100338.19;4960106;28;20559;-81
2024/03/01 04:17:40;;;;;;;173.45;52.28;;;8.00;99.90;;;6.73;100.00;100339.84;4946828;28;20034;-81
2024/03/01 04:20:07;;;;;;;167.13;54.17;;;8.00;99.90;;;6.74;100.00;100329.31;4953598;28;20053;-81
2024/03/01 04:22:43;;;;;;;180.70;54.67;;;8.00;99.90;;;6.71;100.00;100331.19;4919766;28;20409;-81
2024/03/01 04:25:09;;;;;;;186.20;55.97;;;8.00;99.90;;;6.72;100.00;100332.91;4924357;28;20039;-82
2024/03/01 04:27:38;;;;;;;186.45;56.40;;;8.10;99.90;;;6.74;100.00;100331.94;4925368;28;20112;-81
2024/03/01 04:30:09;;;;;;;147.88;44.55;;;8.10;99.90;;;6.72;100.00;100330.28;4927681;28;20066;-81
2024/03/01 04:32:35;;;;;;;171.25;52.05;;;8.10;99.90;;;6.71;100.00;100323.34;4946955;28;20100;-81
2024/03/01 04:35:02;;;;;;;178.18;53.25;;;8.00;99.90;;;6.70;100.00;100319.88;4953959;28;20035;-80
2024/03/01 04:37:28;;;;;;;178.52;56.13;;;8.10;99.90;;;6.75;100.00;100324.94;4934650;28;20030;-81
2024/03/01 04:39:54;;;;;;;177.18;51.90;;;8.10;99.90;;;6.75;100.00;100317.09;4947102;28;20042;-81
2024/03/01 04:42:24;;;;;;;173.07;54.00;;;8.10;99.90;;;6.74;100.00;100311.00;4922941;28;20106;-81
2024/03/01 04:44:50;;;;;;;184.23;55.22;;;8.10;99.90;;;6.74;100.00;100318.00;4927375;28;20042;-82
2024/03/01 04:47:16;;;;;;;179.55;56.47;;;8.10;99.90;;;6.76;100.00;100317.03;4899802;28;20465;-81
2024/03/01 04:49:43;;;;;;;178.55;57.70;;;8.10;99.90;;;6.81;100.00;100329.09;4940578;28;20044;-80
2024/03/01 04:52:09;;;;;;;182.13;55.95;;;8.10;99.90;;;6.85;100.00;100323.69;4927983;28;20034;-81
2024/03/01 04:54:44;;;;;;;182.13;55.33;;;8.20;99.90;;;6.86;100.00;100322.75;4925743;28;20048;-81
2024/03/01 04:57:10;;;;;;;199.55;55.13;;;8.20;99.90;;;6.85;100.00;100326.31;4926787;28;20511;-81
2024/03/01 04:59:38;;;;;;;176.32;55.25;;;;;;;6.89;100.00;100321.78;4911081;28;20046;-81
2024/03/01 05:02:12;;;;;;;187.48;55.72;;;8.20;99.90;;;6.91;100.00;100315.59;4921030;28;20101;-80
2024/03/01 05:04:37;;;;;;;197.73;62.50;;;8.20;99.90;;;6.96;100.00;100315.41;4935426;28;20046;-81
2024/03/01 05:07:03;;;;;;;202.90;61.75;;;8.30;99.90;;;6.98;100.00;100314.44;4920594;28;20628;-81
2024/03/01 05:09:29;;;;;;;199.95;61.55;;;8.30;99.90;;;6.99;100.00;100316.13;4936487;28;20039;-81
2024/03/01 05:11:59;;;;;;;198.32;58.15;;;8.30;99.90;;;7.00;100.00;100314.41;4899117;28;20038;-81
2024/03/01 05:14:25;;;;;;;198.43;60.80;;;8.30;99.90;;;7.01;100.00;100305.63;4889962;28;20034;-82
2024/03/01 05:16:51;;;;;;;200.20;59.80;;;8.40;99.90;;;7.04;100.00;100309.88;4956785;28;20106;-81
2024/03/01 05:19:17;;;;;;;209.05;61.80;;;8.40;99.90;;;7.04;100.00;100307.25;4936399;28;20102;-81
2024/03/01 05:21:43;;;;;;;189.13;57.38;;;8.30;99.90;;;7.03;100.00;100306.41;4942910;28;20043;-80
2024/03/01 05:24:08;;;;;;;198.25;61.70;;;8.30;99.90;;;7.03;100.00;100305.56;4923581;28;20027;-80
2024/03/01 05:26:44;;;;;;;196.30;60.22;;;8.30;99.90;;;7.05;100.00;100307.22;4898419;28;20048;-81
2024/03/01 05:29:10;;;;;;;202.90;63.43;;;8.30;99.90;;;7.04;100.00;100308.13;4934277;28;20085;-81
2024/03/01 05:31:50;;;;;;;195.95;59.47;;;8.40;99.90;;;7.07;100.00;100310.63;4888023;28;20266;-81
2024/03/01 05:34:16;;;;;;;187.95;59.17;;;8.40;99.90;;;7.08;100.00;100311.47;4916989;28;20042;-81
2024/03/01 05:36:41;;;;;;;205.95;64.20;;;8.40;99.90;;;7.03;100.00;100302.94;4937001;28;20049;-82
2024/03/01 05:39:18;;;;;;;206.63;63.80;;;8.30;99.90;;;7.10;100.00;100304.41;4913207;28;20053;-81
2024/03/01 05:41:56;;;;;;;224.68;62.30;;;8.40;99.90;;;7.10;100.00;100314.88;4926772;28;20046;-81
2024/03/01 05:44:22;;;;;;;205.23;61.90;;;8.40;99.90;;;7.08;100.00;100314.09;4921415;28;20117;-82
2024/03/01 05:46:48;;;;;;;198.55;63.22;;;8.30;99.90;;;7.04;100.00;100310.75;4916360;28;20122;-81
2024/03/01 05:49:19;;;;;;;222.90;65.10;;;8.40;99.90;;;7.05;100.00;100311.59;4913118;28;20522;-81
2024/03/01 05:51:45;;;;;;;199.35;61.85;;;8.40;99.90;;;7.01;100.00;100313.47;4938768;28;20466;-81
2024/03/01 05:54:11;;;;;;;198.63;60.30;;;8.40;99.90;;;7.02;100.00;100315.19;4925142;28;20040;-82
2024/03/01 05:56:37;;;;;;;179.38;54.25;;;;;;;7.00;100.00;100314.41;4928614;28;20553;-82
2024/03/01 05:59:03;;;;;;;184.63;55.85;;;8.30;99.90;;;7.03;100.00;100319.50;4941746;28;20607;-82
2024/03/01 06:01:29;;;;;;;201.45;62.90;;;8.40;99.90;;;7.05;100.00;100311.59;4936802;28;20102;-81
2024/03/01 06:04:09;;;;;;;137.98;43.17;;;8.40;99.90;;;7.05;100.00;100311.59;4922151;28;20042;-82
2024/03/01 06:06:44;;;;;;;162.45;50.10;;;8.40;99.90;;;7.06;100.00;100318.53;4928885;28;20038;-82
2024/03/01 06:09:11;;;;;;;156.90;52.03;;;8.40;99.90;;;7.07;100.00;100321.09;4928240;28;21102;-82
2024/03/01 06:11:37;;;;;;;161.30;54.88;;;8.40;99.90;;;7.03;100.00;100319.50;4943919;28;20048;-83
2024/03/01 06:14:13;;;;;;;165.38;56.20;;;8.40;99.90;;;7.10;100.00;100325.34;4956917;28;20523;-82
2024/03/01 06:16:41;;;;;;;180.30;57.00;;;8.50;99.90;;;7.16;100.00;100331.19;4944686;28;20179;-82
2024/03/01 06:19:17;;;;;;;169.80;53.85;;;8.50;99.90;;;7.21;100.00;100332.78;4954132;28;20026;-81
2024/03/01 06:21:43;;;;;;;181.43;57.80;;;8.50;99.90;;;7.19;100.00;100325.88;4936883;28;20041;-82
2024/03/01 06:24:09;;;;;;;176.27;57.92;;;8.50;99.90;;;7.21;100.00;100327.56;4909925;28;20102;-82
2024/03/01 06:26:40;;;;;;;164.10;56.35;;;8.60;99.90;;;7.25;100.00;100331.75;4895163;28;20038;-82
2024/03/01 06:29:06;;;;;;;155.38;54.10;;;8.60;99.90;;;7.26;100.00;100328.25;4943537;28;20555;-82
2024/03/01 06:31:53;;;;;;;171.80;56.78;;;8.60;99.90;;;7.29;100.00;100318.47;4941068;28;20121;-83
2024/03/01 06:34:30;;;;;;;169.27;59.85;;;8.60;99.90;;;7.32;100.00;100313.16;4917610;28;20081;-81
2024/03/01 06:37:04;;;;;;;174.38;58.15;;;8.60;99.90;;;7.33;100.00;100320.06;4908745;28;20130;-82
2024/03/01 06:39:30;;;;;;;166.95;57.17;;;8.60;99.90;;;7.34;100.00;100321.78;4939556;28;21299;-82
2024/03/01 06:41:56;;;;;;;203.65;63.67;;;8.60;99.90;;;7.37;100.00;100318.19;4919679;28;20043;-82
2024/03/01 06:44:27;;;;;;;188.25;61.78;;;8.70;99.90;;;7.37;100.00;100308.56;4923613;28;20058;-82
2024/03/01 06:46:56;;;;;;;188.85;62.22;;;8.70;99.90;;;7.46;100.00;100322.22;4908554;28;20089;-82
2024/03/01 06:49:22;;;;;;;192.73;61.47;;;8.70;99.90;;;7.41;100.00;100317.16;4941311;28;20037;-82
2024/03/01 06:51:48;;;;;;;181.68;57.15;;;8.70;99.90;;;7.40;100.00;100315.44;4901023;28;20098;-82
2024/03/01 06:54:14;;;;;;;191.98;62.28;;;8.70;99.90;;;7.40;100.00;100305.81;4911558;28;20095;-82
2024/03/01 06:56:41;;;;;;;192.00;59.33;;;8.70;99.90;;;7.45;100.00;100307.41;4926960;28;20034;-83
2024/03/01 06:59:15;;;;;;;174.88;57.35;;;8.70;99.90;;;7.43;100.00;100312.72;4927728;28;20518;-82
2024/03/01 07:01:41;;;;;;;203.95;61.15;;;8.70;99.90;;;7.47;100.00;100303.78;4907308;28;20054;-82
2024/03/01 07:04:07;;;;;;;188.23;62.40;;;8.80;99.90;;;7.48;100.00;100302.91;4938941;28;20106;-82
2024/03/01 07:06:33;;;;;;;191.55;61.22;;;8.80;99.90;;;7.48;100.00;100297.66;4932247;28;20039;-82
2024/03/01 07:09:06;;;;;;;176.55;55.08;;;8.80;99.90;;;7.47;100.00;100287.22;4911729;28;20049;-82
2024/03/01 07:11:32;;;;;;;176.52;57.97;;;8.80;99.90;;;7.48;100.00;100294.19;4917650;28;20147;-82
2024/03/01 07:13:57;;;;;;;186.80;60.58;;;8.80;99.90;;;7.47;100.00;100288.06;4929026;28;20109;-82
2024/03/01 07:16:23;;;;;;;205.43;63.55;;;8.80;99.90;;;7.48;100.00;100289.78;4916912;28;20101;-81
2024/03/01 07:18:49;;;;;;;181.20;59.75;;;8.80;99.90;;;7.53;100.00;100286.97;4943490;28;20058;-82
2024/03/01 07:21:22;;;;;;;173.70;55.30;;;8.80;99.90;;;7.52;100.00;100291.38;4936839;28;20139;-81
2024/03/01 07:23:48;;;;;;;174.25;56.53;;;8.80;99.90;;;7.54;100.00;100286.09;4963500;28;20082;-83
2024/03/01 07:26:14;;;;;;;187.52;56.60;;;8.80;99.90;;;7.52;100.00;100296.63;4919693;28;20042;-81
2024/03/01 07:28:39;;;;;;;156.45;49.00;;;8.90;99.90;;;7.51;100.00;100294.91;4939139;28;20053;-82
2024/03/01 07:31:05;;;;;;;169.82;57.53;;;8.80;99.90;;;7.54;100.00;100294.78;4935106;28;20045;-82
2024/03/01 07:33:38;;;;;;;176.00;57.65;;;8.90;99.90;;;7.58;100.00;100291.13;4973394;28;20108;-82
2024/03/01 07:36:05;;;;;;;178.70;60.47;;;8.90;99.90;;;7.56;100.00;100292.97;4979431;28;20192;-82
2024/03/01 07:38:31;;;;;;;195.25;61.72;;;8.90;99.90;;;7.59;100.00;100298.06;4951154;28;20502;-82
2024/03/01 07:40:57;;;;;;;161.18;52.78;;;8.90;99.90;;;7.61;100.00;100303.25;4935742;28;20033;-82
2024/03/01 07:43:30;;;;;;;177.60;59.55;;;8.90;99.90;;;7.62;100.00;100294.47;4926068;28;20049;-83
2024/03/01 07:45:57;;;;;;;172.73;60.67;;;8.90;99.90;;;7.66;100.00;100296.03;4906948;28;20039;-83
2024/03/01 07:48:24;;;;;;;194.60;63.03;;;9.00;99.90;;;7.69;100.00;100292.44;4980244;28;20045;-82
2024/03/01 07:50:59;;;;;;;174.85;60.60;;;9.50;99.90;;;7.70;100.00;100295.00;4962350;28;20098;-83
2024/03/01 07:53:25;;;;;;;179.10;61.30;;;9.00;99.90;;;7.74;100.00;100295.72;4966120;28;20538;-82
2024/03/01 07:55:51;;;;;;;186.80;62.67;;;9.00;99.90;;;7.74;100.00;100296.56;4959949;28;20035;-83
2024/03/01 07:58:18;;;;;;;190.50;64.65;;;9.00;99.90;;;7.80;100.00;100303.34;4924421;28;20109;-83
2024/03/01 08:00:53;;;;;;;180.07;59.70;;;;;;;7.79;100.00;100302.47;4959158;28;20026;-83
2024/03/01 08:03:19;;;;;;;180.15;62.20;;;9.10;99.90;;;7.80;100.00;100306.81;4943269;28;20037;-83
2024/03/01 08:05:46;;;;;;;191.00;61.72;;;9.10;99.90;;;7.77;100.00;100316.56;4933838;28;20038;-81
2024/03/01 08:08:41;;;;;;;183.43;59.65;;;9.10;99.90;;;7.75;100.00;100308.78;4937034;28;20646;-82
2024/03/01 08:11:21;;;;;;;171.02;59.25;;;9.10;99.90;;;7.75;100.00;100308.78;4898502;28;20074;-82
2024/03/01 08:13:52;;;;;;;179.65;60.28;;;9.10;99.90;;;7.83;100.00;100305.81;4870852;28;20039;-82
2024/03/01 08:16:25;;;;;;;177.70;60.55;;;9.10;99.90;;;7.86;100.00;100303.09;4865050;28;20046;-83
2024/03/01 08:19:00;;;;;;;180.93;59.47;;;9.20;99.90;;;7.88;100.00;100308.25;4889423;28;20162;-83
2024/03/01 08:21:26;;;;;;;164.98;57.08;;;9.10;99.90;;;7.86;100.00;100295.22;4909572;28;20039;-83
2024/03/01 08:23:52;;;;;;;168.15;57.60;;;9.20;99.90;;;7.89;100.00;100302.09;4881164;28;20051;-85
2024/03/01 08:26:25;;;;;;;171.00;57.70;;;9.20;99.90;;;7.98;100.00;100299.09;4863816;28;20067;-84
2024/03/01 08:28:52;;;;;;;172.10;59.95;;;9.30;99.90;;;8.00;100.00;100292.84;4840599;29;20463;-85
2024/03/01 08:31:35;;;;;;;161.98;53.35;;;9.30;99.90;;;8.04;100.00;100297.97;4878321;29;20070;-85
2024/03/01 08:34:41;;;;;;;177.23;61.25;;;9.30;99.90;;;8.05;100.00;100299.66;4863870;29;20400;-84
2024/03/01 08:37:21;;;;;;;170.35;58.72;;;9.20;99.90;;;8.06;100.00;100307.47;4864949;29;20040;-85
2024/03/01 08:39:50;;;;;;;173.05;59.83;;;;;;;8.07;100.00;100305.69;4879524;28;20039;-83
2024/03/01 08:45:44;;;;;;;174.73;60.20;;;9.40;99.90;;;8.13;100.00;100303.66;4857203;28;20043;-84
2024/03/01 08:48:34;;;;;;;175.43;57.90;;;9.40;99.90;;;8.12;100.00;100303.72;4864880;28;20116;-85
2024/03/01 08:51:03;;;;;;;172.65;58.53;;;9.40;99.90;;;8.12;100.00;100306.34;4943287;28;20034;-85
2024/03/01 08:53:58;;;;;;;155.68;54.03;;;9.40;99.90;;;8.14;100.00;100309.75;4916833;28;20077;-84
2024/03/01 08:56:34;;;;;;;168.85;58.08;;;;;;;8.13;100.00;100308.06;4903404;28;20050;-85
2024/03/01 08:59:02;;;;;;;170.77;58.92;;;9.40;99.90;;;8.17;100.00;100312.25;4907695;28;20038;-84
2024/03/01 09:02:45;;;;;;;192.88;61.17;;;9.50;99.90;;;8.15;100.00;100314.94;4936829;28;20774;-83
2024/03/01 09:05:13;;;;;;;180.23;58.20;;;9.40;99.90;;;8.14;100.00;100310.63;4854393;29;20045;-84
2024/03/01 09:08:03;;;;;;;179.55;63.35;;;9.50;99.90;;;8.18;100.00;100314.81;4863086;28;20044;-84
2024/03/01 09:10:43;;;;;;;170.55;58.78;;;9.50;99.90;;;8.17;100.00;100312.25;4813516;29;20046;-84
2024/03/01 09:16:01;;;;;;;194.27;60.65;;;;;;;8.27;100.00;100320.56;4811933;29;20196;-83
2024/03/01 09:18:49;;;;;;;179.25;60.83;;;9.50;99.90;;;8.24;100.00;100321.56;4831579;29;20040;-85
2024/03/01 09:21:46;;;;;;;178.90;59.35;;;9.50;99.90;;;8.22;100.00;100319.00;4830500;29;20052;-83
2024/03/01 09:24:21;;;;;;;179.40;60.22;;;9.50;99.90;;;8.20;100.00;100318.22;4786129;29;20049;-84
2024/03/01 09:27:03;;;;;;;179.88;59.53;;;9.50;99.90;;;8.24;100.00;100307.59;4803710;29;20181;-85
2024/03/01 09:29:44;;;;;;;187.65;60.75;;;;;;;8.24;100.00;100315.47;4807369;29;20041;-84
2024/03/01 09:32:52;;;;;;;193.38;61.47;;;9.50;99.90;;;8.21;100.00;100311.22;4828012;29;20040;-85
2024/03/01 09:35:18;;;;;;;194.95;62.03;;;9.50;99.90;;;8.24;100.00;100313.69;4793168;29;20049;-84
2024/03/01 09:37:45;;;;;;;189.25;63.30;;;;;;;8.28;100.00;100317.88;4763283;29;20038;-84
2024/03/01 09:41:20;;;;;;;187.02;60.65;;;9.60;99.90;;;8.29;100.00;100313.50;4791612;29;20041;-85
2024/03/01 09:44:23;;;;;;;185.32;61.22;;;9.50;99.90;;;8.29;100.00;100318.75;4798255;29;20045;-85
2024/03/01 09:47:21;;;;;;;189.90;62.78;;;;;;;8.30;100.00;100317.84;4750360;29;20054;-83
2024/03/01 09:50:24;;;;;;;189.32;60.55;;;9.60;99.90;;;8.30;100.00;100310.81;4800718;29;20543;-85
2024/03/01 09:53:43;;;;;;;192.18;62.13;;;9.60;99.90;;;8.34;100.00;100311.53;4831112;29;20506;-84
2024/03/01 09:57:22;;;;;;;184.60;58.55;;;9.70;99.90;;;8.29;100.00;100309.09;4794457;29;20418;-83
2024/03/01 10:00:23;;;;;;;191.57;63.25;;;9.60;99.90;;;8.32;100.00;100311.59;4733158;29;20102;-85
2024/03/01 10:03:13;;;;;;;169.38;53.42;;;;;;;8.36;100.00;100305.28;4752287;29;20039;-85
2024/03/01 10:06:25;;;;;;;182.57;61.30;;;9.60;99.90;;;8.39;100.00;100305.16;4777796;29;20053;-84
2024/03/01 10:10:11;;;;;;;185.57;61.75;;;9.70;99.90;;;8.43;100.00;100311.16;4755747;29;20039;-84
2024/03/01 10:13:21;;;;;;;183.50;63.30;;;9.70;99.90;;;8.49;100.00;100308.25;4760993;29;20102;-84
2024/03/01 10:16:05;;;;;;;184.63;62.42;;;;;;;8.55;100.00;100325.50;4774770;29;20516;-84
2024/03/01 10:19:33;;;;;;;177.35;59.92;;;9.80;99.90;;;8.59;100.00;100324.44;4744598;29;20046;-85
2024/03/01 10:22:26;;;;;;;180.18;60.22;;;9.80;99.90;;;8.60;100.00;100323.53;4762842;29;20085;-85
2024/03/01 10:25:11;;;;;;;177.38;59.28;;;9.90;99.90;;;8.61;100.00;100322.59;4763125;29;20524;-85
2024/03/01 10:27:51;;;;;;;186.52;61.70;;;;;;;8.65;100.00;100320.69;4764582;29;20602;-85
2024/03/01 10:30:43;;;;;;;180.52;61.65;;;;;;;8.66;100.00;100323.25;4743067;29;20046;-83
2024/03/01 10:33:41;;;;;;;177.68;59.78;;;;;;;8.68;100.00;100321.38;4793637;29;20048;-84